Time;durP1;ratioP1;P1;durP2;ratioP2;P2;SDS_P1;SDS_P2;PMS_P1;PMS_P2;Temp;Humidity;BMP_temperature;BMP_pressure;BME280_temperature;BME280_humidity;BME280_pressure;Samples;Min_cycle;Max_cycle;Signal;HPM_P1;HPM_P2
2022/09/17 00:00:38;;;;;;;;;;;;;;;25.47;42.41;99753.87;104406;1311;61299;-84
2022/09/17 00:03:04;;;;;;;;;;;;;;;25.46;42.48;99755.75;104506;1309;61461;-84
2022/09/17 00:05:29;;;;;;;;;;;;;;;25.46;42.37;99761.69;104496;1309;62481;-84
2022/09/17 00:07:56;;;;;;;;;;;;;;;25.46;42.33;99764.73;104569;1308;61310;-83
2022/09/17 00:10:22;;;;;;;;;;;;;;;25.46;42.50;99762.90;104468;1308;61442;-83
2022/09/17 00:12:47;;;;;;;;;;;;;;;25.46;42.51;99766.31;104528;1308;61356;-84
2022/09/17 00:15:13;;;;;;;;;;;;;;;25.46;42.45;99766.52;104464;1308;74714;-82
2022/09/17 00:17:38;;;;;;;;;;;;;;;25.46;42.61;99765.23;104467;1308;61286;-83
2022/09/17 00:20:04;;;;;;;;;;;;;;;25.46;42.51;99757.13;104557;1308;61297;-84
2022/09/17 00:22:30;;;;;;;;;;;;;;;25.46;42.56;99755.54;104458;1309;61658;-84
2022/09/17 00:24:55;;;;;;;;;;;;;;;25.46;42.50;99758.98;104498;1308;61302;-85
2022/09/17 00:27:21;;;;;;;;;;;;;;;25.46;42.63;99763.10;104488;1311;75898;-85
2022/09/17 00:29:47;;;;;;;;;;;;;;;25.46;42.56;99766.14;104442;1308;61536;-83
2022/09/17 00:32:12;;;;;;;;;;;;;;;25.46;42.64;99769.08;104500;1309;61166;-84
2022/09/17 00:34:38;;;;;;;;;;;;;;;25.46;42.46;99767.27;104515;1309;61287;-84
2022/09/17 00:37:03;;;;;;;;;;;;;;;25.46;42.57;99763.67;104503;1309;61259;-84
2022/09/17 00:39:29;;;;;;;;;;;;;;;25.46;42.50;99756.12;104523;1309;61381;-82
2022/09/17 00:41:54;;;;;;;;;;;;;;;25.45;42.69;99755.59;104616;1309;61291;-83
2022/09/17 00:44:35;;;;;;;;;;;;;;;25.46;42.67;99759.73;104523;1309;61226;-82
2022/09/17 00:47:00;;;;;;;;;;;;;;;25.45;42.65;99756.55;104617;1309;74376;-83
2022/09/17 00:49:28;;;;;;;;;;;;;;;25.45;42.67;99754.17;104611;1309;61381;-83
2022/09/17 00:51:59;;;;;;;;;;;;;;;25.45;42.61;99752.97;104525;1309;61323;-84
2022/09/17 00:54:25;;;;;;;;;;;;;;;25.45;42.77;99750.77;104483;1309;61275;-84
2022/09/17 00:56:50;;;;;;;;;;;;;;;25.45;42.79;99743.79;104620;1309;61184;-83
2022/09/17 00:59:16;;;;;;;;;;;;;;;25.45;42.63;99740.55;104436;1309;59298;-83
2022/09/17 01:01:41;;;;;;;;;;;;;;;25.45;42.64;99741.25;104541;1309;61284;-83
2022/09/17 01:04:09;;;;;;;;;;;;;;;25.45;42.81;99748.65;104570;1309;59293;-83
2022/09/17 01:07:04;;;;;;;;;;;;;;;25.45;42.76;99749.89;104408;1308;61411;-81
2022/09/17 01:09:39;;;;;;;;;;;;;;;25.45;42.78;99744.33;104518;1309;72890;-82
2022/09/17 01:12:09;;;;;;;;;;;;;;;25.44;42.93;99739.54;104544;1309;75033;-84
2022/09/17 01:14:38;;;;;;;;;;;;;;;25.45;42.81;99740.00;104528;1309;62429;-83
2022/09/17 01:17:23;;;;;;;;;;;;;;;25.44;42.86;99744.40;104509;1310;61712;-83
2022/09/17 01:19:57;;;;;;;;;;;;;;;25.45;42.95;99748.27;104624;1309;71937;-83
2022/09/17 01:22:23;;;;;;;;;;;;;;;25.45;43.01;99747.89;104664;1308;75253;-83
2022/09/17 01:24:49;;;;;;;;;;;;;;;25.45;42.97;99754.92;104492;1309;61290;-85
2022/09/17 01:27:14;;;;;;;;;;;;;;;25.45;43.04;99756.41;104643;1308;61284;-86
2022/09/17 01:29:43;;;;;;;;;;;;;;;25.45;42.96;99757.62;104547;1309;62208;-82
2022/09/17 01:32:29;;;;;;;;;;;;;;;25.45;42.91;99755.71;104530;1308;61180;-84
2022/09/17 01:34:58;;;;;;;;;;;;;;;25.44;43.06;99757.70;104630;1306;61357;-84
2022/09/17 01:37:23;;;;;;;;;;;;;;;25.44;43.09;99751.59;104527;1309;61295;-85
2022/09/17 01:39:50;;;;;;;;;;;;;;;25.45;43.03;99757.32;104536;1309;61279;-86
2022/09/17 01:42:27;;;;;;;;;;;;;;;25.44;43.01;99756.13;104607;1309;61413;-84
2022/09/17 01:45:00;;;;;;;;;;;;;;;25.44;43.09;99754.11;104633;1309;61613;-84
2022/09/17 01:47:27;;;;;;;;;;;;;;;25.44;43.16;99758.45;104498;1308;61196;-84
2022/09/17 01:49:54;;;;;;;;;;;;;;;25.44;43.15;99753.41;104657;1309;72730;-84
2022/09/17 01:52:20;;;;;;;;;;;;;;;25.43;43.31;99747.86;104525;1309;77031;-84
2022/09/17 01:54:48;;;;;;;;;;;;;;;25.43;43.21;99752.60;104451;1309;61298;-84
2022/09/17 01:57:27;;;;;;;;;;;;;;;25.43;43.16;99755.43;104457;1308;61222;-84
2022/09/17 01:59:58;;;;;;;;;;;;;;;25.43;43.23;99749.86;104471;1309;72715;-84
2022/09/17 02:02:29;;;;;;;;;;;;;;;25.43;43.35;99734.60;104557;1308;75991;-84
2022/09/17 02:04:59;;;;;;;;;;;;;;;25.43;43.30;99728.65;104649;1308;61265;-83
2022/09/17 02:07:25;;;;;;;;;;;;;;;25.43;43.19;99735.84;104602;1308;61260;-84
2022/09/17 02:09:54;;;;;;;;;;;;;;;25.42;43.31;99744.73;104622;1307;61972;-84
2022/09/17 02:12:23;;;;;;;;;;;;;;;25.42;43.35;99750.50;104530;1309;75765;-84
2022/09/17 02:14:49;;;;;;;;;;;;;;;25.43;43.28;99748.31;104619;1309;61269;-83
2022/09/17 02:17:31;;;;;;;;;;;;;;;25.43;43.34;99747.23;104550;1308;61475;-84
2022/09/17 02:19:57;;;;;;;;;;;;;;;25.42;43.38;99739.52;104554;1309;72635;-83
2022/09/17 02:22:27;;;;;;;;;;;;;;;25.42;43.40;99735.52;104447;1309;61305;-84
2022/09/17 02:24:57;;;;;;;;;;;;;;;25.42;43.51;99731.05;104528;1308;61306;-83
2022/09/17 02:27:44;;;;;;;;;;;;;;;25.42;43.47;99729.09;104614;1309;61170;-83
2022/09/17 02:30:11;;;;;;;;;;;;;;;25.42;43.50;99726.79;104406;1309;72758;-82
2022/09/17 02:32:36;;;;;;;;;;;;;;;25.42;43.65;99725.83;104451;1309;61248;-83
2022/09/17 02:35:02;;;;;;;;;;;;;;;25.42;43.54;99721.12;104657;1309;61599;-83
2022/09/17 02:37:28;;;;;;;;;;;;;;;25.42;43.36;99715.58;104634;1307;61279;-82
2022/09/17 02:39:54;;;;;;;;;;;;;;;25.42;43.34;99720.45;104436;1310;61248;-85
2022/09/17 02:42:37;;;;;;;;;;;;;;;25.42;43.42;99723.11;104497;1309;61404;-83
2022/09/17 02:45:22;;;;;;;;;;;;;;;25.42;43.63;99722.60;104643;1309;75823;-81
2022/09/17 02:48:07;;;;;;;;;;;;;;;25.42;43.64;99714.88;104655;1307;61153;-84
2022/09/17 02:50:38;;;;;;;;;;;;;;;25.42;43.64;99713.80;104568;1309;61556;-83
2022/09/17 02:53:23;;;;;;;;;;;;;;;25.42;43.60;99709.48;104628;1309;72783;-84
2022/09/17 02:55:57;;;;;;;;;;;;;;;25.42;43.64;99711.44;104609;1309;76235;-83
2022/09/17 02:58:45;;;;;;;;;;;;;;;25.42;43.61;99703.90;104513;1309;61545;-83
2022/09/17 03:01:18;;;;;;;;;;;;;;;25.42;43.71;99703.55;104475;1309;61302;-83
2022/09/17 03:03:43;;;;;;;;;;;;;;;25.42;43.65;99702.27;104624;1308;72842;-83
2022/09/17 03:06:09;;;;;;;;;;;;;;;25.42;43.68;99700.48;104516;1309;61500;-84
2022/09/17 03:08:36;;;;;;;;;;;;;;;25.42;43.67;99692.58;104449;1309;61329;-80
2022/09/17 03:11:01;;;;;;;;;;;;;;;25.42;43.76;99688.24;104468;1308;61321;-83
2022/09/17 03:13:27;;;;;;;;;;;;;;;25.41;43.76;99680.90;104451;1309;61269;-84
2022/09/17 03:15:52;;;;;;;;;;;;;;;25.41;43.77;99665.59;104522;1309;61417;-83
2022/09/17 03:18:18;;;;;;;;;;;;;;;25.41;43.84;99663.09;104573;1309;61841;-83
2022/09/17 03:20:43;;;;;;;;;;;;;;;25.41;43.74;99665.11;104598;1309;61489;-83
2022/09/17 03:23:09;;;;;;;;;;;;;;;25.41;43.85;99664.34;104546;1309;67422;-83
2022/09/17 03:25:34;;;;;;;;;;;;;;;25.41;43.90;99661.85;104527;1309;61418;-83
2022/09/17 03:28:00;;;;;;;;;;;;;;;25.41;43.69;99660.92;104514;1309;59428;-83
2022/09/17 03:30:26;;;;;;;;;;;;;;;25.41;43.68;99656.98;104450;1308;61291;-83
2022/09/17 03:32:51;;;;;;;;;;;;;;;25.41;43.83;99653.94;104492;1308;61272;-85
2022/09/17 03:35:17;;;;;;;;;;;;;;;25.41;43.93;99657.02;104434;1309;61384;-83
2022/09/17 03:37:42;;;;;;;;;;;;;;;25.40;43.81;99653.80;104547;1309;61280;-84
2022/09/17 03:40:08;;;;;;;;;;;;;;;25.41;43.74;99652.36;104494;1309;61300;-83
2022/09/17 03:42:33;;;;;;;;;;;;;;;25.40;43.90;99653.47;104498;1309;61336;-83
2022/09/17 03:44:59;;;;;;;;;;;;;;;25.41;43.91;99654.68;104615;1309;61378;-87
2022/09/17 03:47:25;;;;;;;;;;;;;;;25.40;43.77;99652.42;104553;1309;61239;-84
2022/09/17 03:49:51;;;;;;;;;;;;;;;25.40;43.90;99646.83;104505;1309;62956;-83
2022/09/17 03:52:17;;;;;;;;;;;;;;;25.40;43.82;99640.00;104517;1309;59290;-85
2022/09/17 03:54:42;;;;;;;;;;;;;;;25.40;43.92;99632.61;104650;1309;61317;-84
2022/09/17 03:57:08;;;;;;;;;;;;;;;25.40;43.97;99624.88;104562;1309;61387;-84
2022/09/17 03:59:33;;;;;;;;;;;;;;;25.40;44.02;99621.66;104489;1309;61189;-84
2022/09/17 04:01:59;;;;;;;;;;;;;;;25.40;43.88;99628.08;104527;1309;61305;-83
2022/09/17 04:04:24;;;;;;;;;;;;;;;25.40;44.17;99629.23;104432;1309;61309;-84
2022/09/17 04:06:50;;;;;;;;;;;;;;;25.40;43.94;99624.74;104523;1309;61299;-87
2022/09/17 04:09:16;;;;;;;;;;;;;;;25.40;44.09;99622.88;104565;1309;61282;-83
2022/09/17 04:11:42;;;;;;;;;;;;;;;25.40;44.07;99624.91;104524;1309;61179;-83
2022/09/17 04:14:07;;;;;;;;;;;;;;;25.40;44.03;99619.10;104490;1309;61439;-84
2022/09/17 04:16:33;;;;;;;;;;;;;;;25.40;44.06;99614.06;104521;1309;61334;-84
2022/09/17 04:19:00;;;;;;;;;;;;;;;25.39;44.03;99614.84;104528;1309;61288;-84
2022/09/17 04:21:25;;;;;;;;;;;;;;;25.40;43.99;99617.34;104493;1310;61737;-84
2022/09/17 04:23:51;;;;;;;;;;;;;;;25.39;43.95;99618.23;104560;1309;61317;-85
2022/09/17 04:26:16;;;;;;;;;;;;;;;25.39;44.04;99614.09;104649;1309;72837;-81
2022/09/17 04:28:42;;;;;;;;;;;;;;;25.40;44.08;99608.83;104480;1309;61332;-82
2022/09/17 04:31:08;;;;;;;;;;;;;;;25.40;44.08;99607.78;104346;1309;61302;-83
2022/09/17 04:33:34;;;;;;;;;;;;;;;25.40;44.12;99605.22;104618;1309;61336;-83
2022/09/17 04:35:59;;;;;;;;;;;;;;;25.40;44.14;99607.88;104268;1309;61309;-83
2022/09/17 04:38:25;;;;;;;;;;;;;;;25.40;44.27;99607.17;104309;1309;61240;-82
2022/09/17 04:40:50;;;;;;;;;;;;;;;25.41;44.16;99609.66;104384;1309;74614;-83
2022/09/17 04:43:16;;;;;;;;;;;;;;;25.41;44.08;99615.55;104404;1307;61258;-82
2022/09/17 04:45:43;;;;;;;;;;;;;;;25.41;44.36;99612.47;104434;1309;61404;-83
2022/09/17 04:48:09;;;;;;;;;;;;;;;25.42;44.27;99609.52;104281;1309;61257;-83
2022/09/17 04:50:34;;;;;;;;;;;;;;;25.42;44.26;99607.70;104417;1309;61295;-83
2022/09/17 04:53:00;;;;;;;;;;;;;;;25.43;44.29;99603.50;104460;1309;61442;-84
2022/09/17 04:55:26;;;;;;;;;;;;;;;25.43;44.33;99605.08;104616;1309;61289;-84
2022/09/17 04:57:52;;;;;;;;;;;;;;;25.43;44.34;99602.95;104615;1309;61417;-84
2022/09/17 05:00:18;;;;;;;;;;;;;;;25.43;44.17;99605.05;104446;1309;61410;-84
2022/09/17 05:02:44;;;;;;;;;;;;;;;25.44;44.26;99603.23;104535;1309;61270;-84
2022/09/17 05:05:09;;;;;;;;;;;;;;;25.43;44.32;99601.10;104527;1309;61284;-83
2022/09/17 05:07:37;;;;;;;;;;;;;;;25.43;44.27;99601.23;104541;1309;61275;-83
2022/09/17 05:10:05;;;;;;;;;;;;;;;25.43;44.19;99603.98;104517;1309;61152;-83
2022/09/17 05:12:30;;;;;;;;;;;;;;;25.43;44.39;99605.95;104501;1309;61317;-83
2022/09/17 05:14:56;;;;;;;;;;;;;;;25.42;44.37;99602.80;104627;1309;61227;-83
2022/09/17 05:17:21;;;;;;;;;;;;;;;25.43;44.26;99600.05;104491;1309;61295;-83
2022/09/17 05:19:47;;;;;;;;;;;;;;;25.43;44.34;99596.81;104466;1309;61349;-83
2022/09/17 05:22:12;;;;;;;;;;;;;;;25.42;44.29;99593.06;104562;1309;61340;-83
2022/09/17 05:24:38;;;;;;;;;;;;;;;25.43;44.26;99601.33;104554;1308;74261;-83
2022/09/17 05:27:05;;;;;;;;;;;;;;;25.43;44.48;99605.79;104645;1309;61405;-84
2022/09/17 05:29:30;;;;;;;;;;;;;;;25.43;44.33;99605.44;104636;1309;61387;-83
2022/09/17 05:31:56;;;;;;;;;;;;;;;25.43;44.32;99603.92;104649;1309;61414;-83
2022/09/17 05:34:22;;;;;;;;;;;;;;;25.44;44.44;99605.02;104531;1308;61384;-83
2022/09/17 05:36:48;;;;;;;;;;;;;;;25.43;44.56;99604.16;104460;1309;61322;-83
2022/09/17 05:39:14;;;;;;;;;;;;;;;25.43;44.40;99608.66;104535;1309;61388;-83
2022/09/17 05:41:39;;;;;;;;;;;;;;;25.43;44.30;99611.56;104458;1311;61384;-84
2022/09/17 05:44:05;;;;;;;;;;;;;;;25.43;44.37;99609.71;104502;1309;74055;-85
2022/09/17 05:46:30;;;;;;;;;;;;;;;25.43;44.35;99602.17;104526;1309;61439;-84
2022/09/17 05:48:56;;;;;;;;;;;;;;;25.43;44.35;99603.42;104529;1309;61265;-84
2022/09/17 05:51:22;;;;;;;;;;;;;;;25.44;44.37;99610.05;104624;1308;61275;-84
2022/09/17 05:53:47;;;;;;;;;;;;;;;25.44;44.36;99613.44;104506;1309;61445;-83
2022/09/17 05:56:13;;;;;;;;;;;;;;;25.44;44.50;99615.26;104537;1309;62019;-83
2022/09/17 05:58:38;;;;;;;;;;;;;;;25.44;44.46;99610.77;104528;1309;61314;-83
2022/09/17 06:01:04;;;;;;;;;;;;;;;25.45;44.36;99613.92;104630;1308;61378;-84
2022/09/17 06:03:31;;;;;;;;;;;;;;;25.45;44.41;99610.36;104623;1308;61262;-84
2022/09/17 06:05:58;;;;;;;;;;;;;;;25.44;44.43;99604.41;104492;1309;61119;-83
2022/09/17 06:08:24;;;;;;;;;;;;;;;25.45;44.44;99603.45;104450;1308;61315;-83
2022/09/17 06:10:49;;;;;;;;;;;;;;;25.44;44.53;99604.95;104636;1307;61300;-83
2022/09/17 06:13:16;;;;;;;;;;;;;;;25.45;44.32;99612.32;104516;1309;61281;-82
2022/09/17 06:15:41;;;;;;;;;;;;;;;25.45;44.44;99617.55;104546;1309;61290;-83
2022/09/17 06:18:07;;;;;;;;;;;;;;;25.44;44.41;99624.02;104691;1309;61756;-84
2022/09/17 06:20:32;;;;;;;;;;;;;;;25.45;44.63;99624.95;104330;1309;73674;-84
2022/09/17 06:22:58;;;;;;;;;;;;;;;25.45;44.52;99619.16;104525;1309;61419;-84
2022/09/17 06:25:23;;;;;;;;;;;;;;;25.45;44.64;99616.09;104504;1309;61387;-83
2022/09/17 06:27:49;;;;;;;;;;;;;;;25.45;44.41;99618.96;104440;1308;61464;-82
2022/09/17 06:30:14;;;;;;;;;;;;;;;25.45;44.42;99622.37;104556;1309;61353;-84
2022/09/17 06:32:40;;;;;;;;;;;;;;;25.45;44.40;99628.65;104512;1309;75932;-84
2022/09/17 06:35:05;;;;;;;;;;;;;;;25.46;44.51;99626.59;104455;1309;61301;-84
2022/09/17 06:37:31;;;;;;;;;;;;;;;25.46;44.46;99617.20;104532;1309;61284;-83
2022/09/17 06:39:58;;;;;;;;;;;;;;;25.46;44.40;99618.83;104542;1309;61275;-80
2022/09/17 06:42:24;;;;;;;;;;;;;;;25.46;44.47;99612.69;104525;1309;61279;-83
2022/09/17 06:44:49;;;;;;;;;;;;;;;25.46;44.51;99608.73;104474;1309;61320;-83
2022/09/17 06:47:15;;;;;;;;;;;;;;;25.46;44.51;99608.20;104566;1309;61433;-83
2022/09/17 06:49:40;;;;;;;;;;;;;;;25.46;44.58;99601.17;104459;1310;61164;-84
2022/09/17 06:52:06;;;;;;;;;;;;;;;25.46;44.54;99589.86;104515;1310;61398;-82
2022/09/17 06:54:31;;;;;;;;;;;;;;;25.46;44.51;99592.38;104600;1308;61381;-85
2022/09/17 06:56:57;;;;;;;;;;;;;;;25.46;44.67;99592.92;104599;1309;61292;-84
2022/09/17 06:59:25;;;;;;;;;;;;;;;25.46;44.65;99600.28;104559;1309;59981;-84
2022/09/17 07:01:51;;;;;;;;;;;;;;;25.46;44.49;99599.04;104511;1309;61208;-84
2022/09/17 07:04:17;;;;;;;;;;;;;;;25.46;44.53;99597.95;104511;1309;61291;-84
2022/09/17 07:06:43;;;;;;;;;;;;;;;25.46;44.50;99590.37;104650;1308;61401;-86
2022/09/17 07:09:09;;;;;;;;;;;;;;;25.46;44.59;99585.52;104533;1309;61377;-86
2022/09/17 07:11:35;;;;;;;;;;;;;;;25.46;44.62;99584.27;104550;1309;61188;-81
2022/09/17 07:14:00;;;;;;;;;;;;;;;25.46;44.60;99582.09;104604;1309;73014;-83
2022/09/17 07:16:26;;;;;;;;;;;;;;;25.46;44.51;99579.18;104437;1309;61316;-83
2022/09/17 07:18:52;;;;;;;;;;;;;;;25.46;44.56;99569.28;104514;1309;61818;-84
2022/09/17 07:21:17;;;;;;;;;;;;;;;25.46;44.63;99571.65;104440;1309;61291;-84
2022/09/17 07:23:44;;;;;;;;;;;;;;;25.46;44.76;99577.77;104675;1309;61240;-83
2022/09/17 07:26:14;;;;;;;;;;;;;;;25.46;44.70;99583.71;104536;1309;59781;-83
2022/09/17 07:28:40;;;;;;;;;;;;;;;25.46;44.60;99588.58;104548;1307;61410;-83
2022/09/17 07:31:06;;;;;;;;;;;;;;;25.46;44.76;99586.75;104634;1309;61390;-83
2022/09/17 07:33:32;;;;;;;;;;;;;;;25.46;44.74;99585.66;104612;1307;61373;-83
2022/09/17 07:36:00;;;;;;;;;;;;;;;25.46;44.69;99578.48;104443;1309;61323;-83
2022/09/17 07:38:26;;;;;;;;;;;;;;;25.46;44.58;99574.69;104632;1309;61417;-84
2022/09/17 07:40:58;;;;;;;;;;;;;;;25.46;44.75;99572.49;104644;1309;62299;-84
2022/09/17 07:43:27;;;;;;;;;;;;;;;25.46;44.91;99560.84;104614;1309;72751;-84
2022/09/17 07:45:53;;;;;;;;;;;;;;;25.46;44.77;99564.80;104526;1309;74782;-81
2022/09/17 07:48:42;;;;;;;;;;;;;;;25.46;44.58;99573.10;104473;1308;61464;-80
2022/09/17 07:51:07;;;;;;;;;;;;;;;25.46;44.71;99571.44;104181;1316;61971;-80
2022/09/17 07:53:33;;;;;;;;;;;;;;;25.46;44.67;99568.58;103898;1317;61383;-83
2022/09/17 07:55:59;;;;;;;;;;;;;;;25.46;44.67;99567.09;104179;1316;61446;-81
2022/09/17 07:58:32;;;;;;;;;;;;;;;25.47;44.71;99572.67;104207;1316;61268;-83
2022/09/17 08:01:04;;;;;;;;;;;;;;;25.47;44.77;99566.35;104176;1316;61406;-83
2022/09/17 08:03:29;;;;;;;;;;;;;;;25.47;44.69;99563.83;104138;1316;73848;-83
2022/09/17 08:06:02;;;;;;;;;;;;;;;25.47;44.70;99562.73;104101;1317;61282;-80
2022/09/17 08:08:29;;;;;;;;;;;;;;;25.47;44.80;99558.73;104124;1316;61249;-83
2022/09/17 08:10:58;;;;;;;;;;;;;;;25.47;44.83;99560.14;104200;1316;61888;-83
2022/09/17 08:13:24;;;;;;;;;;;;;;;25.47;44.80;99556.19;103944;1317;72586;-83
2022/09/17 08:15:49;;;;;;;;;;;;;;;25.48;44.68;99555.77;103935;1316;61300;-83
2022/09/17 08:18:16;;;;;;;;;;;;;;;25.48;44.76;99559.87;104102;1316;61332;-83
2022/09/17 08:20:41;;;;;;;;;;;;;;;25.48;44.65;99547.80;104129;1316;61306;-81
2022/09/17 08:23:07;;;;;;;;;;;;;;;25.48;44.71;99544.97;104142;1316;61245;-82
2022/09/17 08:25:32;;;;;;;;;;;;;;;25.48;44.84;99547.84;104207;1316;61391;-83
2022/09/17 08:27:58;;;;;;;;;;;;;;;25.48;44.84;99549.27;103992;1309;74027;-83
2022/09/17 08:30:23;;;;;;;;;;;;;;;25.49;44.79;99550.27;104618;1308;61343;-83
2022/09/17 08:32:49;;;;;;;;;;;;;;;25.48;44.85;99542.55;104610;1309;61285;-83
2022/09/17 08:35:15;;;;;;;;;;;;;;;25.49;44.82;99541.27;104454;1309;61367;-83
2022/09/17 08:37:41;;;;;;;;;;;;;;;25.49;44.78;99543.76;104483;1309;61364;-83
2022/09/17 08:40:09;;;;;;;;;;;;;;;25.49;44.72;99547.17;104655;1309;61286;-83
2022/09/17 08:42:34;;;;;;;;;;;;;;;25.49;44.82;99551.30;104387;1309;61407;-83
2022/09/17 08:45:01;;;;;;;;;;;;;;;25.49;44.90;99557.41;104562;1309;61331;-83
2022/09/17 08:47:28;;;;;;;;;;;;;;;25.50;44.69;99554.27;104507;1308;61286;-83
2022/09/17 08:49:55;;;;;;;;;;;;;;;25.50;44.73;99548.27;104630;1309;61246;-84
2022/09/17 08:52:40;;;;;;;;;;;;;;;25.51;44.83;99552.02;104457;1308;61166;-84
2022/09/17 08:55:05;;;;;;;;;;;;;;;25.51;44.80;99559.98;104545;1309;61391;-84
2022/09/17 08:57:31;;;;;;;;;;;;;;;25.51;44.84;99559.15;104594;1309;61269;-83
2022/09/17 08:59:59;;;;;;;;;;;;;;;25.52;44.89;99552.42;104469;1309;61726;-83
2022/09/17 09:02:28;;;;;;;;;;;;;;;25.52;44.85;99547.00;104630;1309;61265;-84
2022/09/17 09:04:58;;;;;;;;;;;;;;;25.52;44.78;99549.14;104535;1309;61413;-83
2022/09/17 09:07:25;;;;;;;;;;;;;;;25.52;44.79;99546.42;104445;1308;73824;-85
2022/09/17 09:10:05;;;;;;;;;;;;;;;25.53;44.71;99545.98;104510;1309;74845;-83
2022/09/17 09:12:32;;;;;;;;;;;;;;;25.54;44.73;99549.54;104484;1309;61293;-84
2022/09/17 09:14:59;;;;;;;;;;;;;;;25.54;44.76;99558.35;104393;1310;61199;-83
2022/09/17 09:17:25;;;;;;;;;;;;;;;25.54;44.87;99558.31;104464;1309;74985;-85
2022/09/17 09:19:53;;;;;;;;;;;;;;;25.54;44.78;99561.92;104645;1309;76248;-84
2022/09/17 09:22:24;;;;;;;;;;;;;;;25.54;44.74;99561.21;104647;1309;61158;-83
2022/09/17 09:25:03;;;;;;;;;;;;;;;25.54;44.96;99573.23;104641;1307;61271;-84
2022/09/17 09:27:32;;;;;;;;;;;;;;;25.55;44.80;99580.37;104487;1309;72876;-84
2022/09/17 09:30:01;;;;;;;;;;;;;;;25.55;44.82;99575.37;104436;1308;74613;-85
2022/09/17 09:32:33;;;;;;;;;;;;;;;25.55;44.86;99581.99;104608;1308;61071;-83
2022/09/17 09:34:59;;;;;;;;;;;;;;;25.55;44.80;99592.05;104481;1309;60639;-84
2022/09/17 09:37:26;;;;;;;;;;;;;;;25.55;44.83;99612.56;104470;1309;74940;-83
2022/09/17 09:39:53;;;;;;;;;;;;;;;25.55;44.73;99617.05;104488;1309;74851;-85
2022/09/17 09:42:18;;;;;;;;;;;;;;;25.56;44.83;99613.41;104499;1309;61274;-83
2022/09/17 09:44:44;;;;;;;;;;;;;;;25.56;44.70;99618.77;104479;1309;61396;-84
2022/09/17 09:47:22;;;;;;;;;;;;;;;25.56;44.79;99622.02;104425;1309;61278;-81
2022/09/17 09:50:04;;;;;;;;;;;;;;;25.56;44.73;99613.92;104228;1310;75061;-83
2022/09/17 09:52:32;;;;;;;;;;;;;;;25.56;44.93;99594.29;104623;1309;61177;-84
2022/09/17 09:54:58;;;;;;;;;;;;;;;25.56;44.78;99585.98;104483;1310;61264;-83
2022/09/17 09:57:30;;;;;;;;;;;;;;;25.56;44.70;99578.79;104620;1308;59330;-83
2022/09/17 10:00:15;;;;;;;;;;;;;;;25.56;44.73;99575.74;104623;1309;75823;-86
2022/09/17 10:02:40;;;;;;;;;;;;;;;25.56;44.80;99583.31;103019;1309;2215233;-83
2022/09/17 10:05:09;;;;;;;;;;;;;;;25.56;44.66;99588.52;104471;1308;62528;-86
2022/09/17 10:07:42;;;;;;;;;;;;;;;25.56;44.79;99582.94;104511;1309;72687;-83
2022/09/17 10:10:09;;;;;;;;;;;;;;;25.56;44.80;99585.85;104445;1309;73849;-83
2022/09/17 10:12:34;;;;;;;;;;;;;;;25.57;44.75;99578.04;104534;1308;61388;-83
2022/09/17 10:15:02;;;;;;;;;;;;;;;25.57;44.81;99572.06;104463;1308;61271;-85
2022/09/17 10:17:28;;;;;;;;;;;;;;;25.57;44.86;99573.52;104521;1308;61311;-85
2022/09/17 10:20:09;;;;;;;;;;;;;;;25.57;44.82;99580.16;104502;1309;61320;-82
2022/09/17 10:22:43;;;;;;;;;;;;;;;25.57;44.67;99587.54;104390;1309;61128;-82
2022/09/17 10:25:28;;;;;;;;;;;;;;;25.57;44.88;99583.02;104540;1309;61402;-83
2022/09/17 10:27:54;;;;;;;;;;;;;;;25.57;44.76;99574.55;104528;1309;72649;-83
2022/09/17 10:30:19;;;;;;;;;;;;;;;25.57;44.78;99570.77;104454;1309;61343;-83
2022/09/17 10:33:08;;;;;;;;;;;;;;;25.58;44.84;99559.20;104537;1309;61424;-83
2022/09/17 10:35:34;;;;;;;;;;;;;;;25.58;44.73;99554.67;104508;1309;61246;-83
2022/09/17 10:37:59;;;;;;;;;;;;;;;25.58;44.61;99558.27;104639;1308;61270;-84
2022/09/17 10:40:27;;;;;;;;;;;;;;;25.58;44.72;99564.52;104549;1309;61326;-81
2022/09/17 10:43:13;;;;;;;;;;;;;;;25.58;44.75;99569.36;104449;1308;60510;-83
2022/09/17 10:45:41;;;;;;;;;;;;;;;25.59;44.67;99568.08;104644;1308;61144;-84
2022/09/17 10:48:16;;;;;;;;;;;;;;;25.58;44.86;99567.90;104523;1308;72680;-84
2022/09/17 10:50:46;;;;;;;;;;;;;;;25.58;44.83;99565.23;104504;1309;74708;-83
2022/09/17 10:53:14;;;;;;;;;;;;;;;25.58;44.82;99575.84;104485;1308;61256;-83
2022/09/17 10:55:42;;;;;;;;;;;;;;;25.58;44.79;99578.07;104461;1308;61623;-83
2022/09/17 10:58:08;;;;;;;;;;;;;;;25.58;44.74;99577.67;104627;1309;72603;-83
2022/09/17 11:00:37;;;;;;;;;;;;;;;25.58;44.78;99580.94;104642;1309;74900;-85
2022/09/17 11:03:10;;;;;;;;;;;;;;;25.59;44.93;99584.48;104475;1310;61267;-83
2022/09/17 11:05:53;;;;;;;;;;;;;;;25.58;44.75;99580.94;104545;1308;61589;-84
2022/09/17 11:08:23;;;;;;;;;;;;;;;25.58;44.74;99580.03;104616;1309;71661;-81
2022/09/17 11:10:49;;;;;;;;;;;;;;;25.58;44.69;99578.40;104511;1309;75754;-86
2022/09/17 11:13:53;;;;;;;;;;;;;;;25.58;44.85;99584.33;104632;1309;61352;-84
2022/09/17 11:16:26;;;;;;;;;;;;;;;25.57;44.68;99576.88;104225;1314;62217;-84
2022/09/17 11:18:57;;;;;;;;;;;;;;;25.57;44.93;99573.81;104139;1315;72776;-83
2022/09/17 11:21:28;;;;;;;;;;;;;;;25.58;44.76;99572.45;104149;1316;74838;-84
2022/09/17 11:23:58;;;;;;;;;;;;;;;25.57;44.72;99566.45;104165;1316;61410;-84
2022/09/17 11:26:44;;;;;;;;;;;;;;;25.57;44.69;99568.79;104235;1314;61194;-83
2022/09/17 11:29:09;;;;;;;;;;;;;;;25.57;44.75;99570.23;104047;1316;72647;-85
2022/09/17 11:31:58;;;;;;;;;;;;;;;25.57;44.83;99569.46;104216;1314;61322;-81
2022/09/17 11:34:32;;;;;;;;;;;;;;;25.57;44.81;99567.12;103828;1316;61247;-83
2022/09/17 11:36:58;;;;;;;;;;;;;;;25.57;44.78;99568.58;104209;1314;61185;-83
2022/09/17 11:39:30;;;;;;;;;;;;;;;25.57;44.99;99574.70;104139;1314;61624;-83
2022/09/17 11:41:55;;;;;;;;;;;;;;;25.58;44.77;99584.01;104200;1316;75682;-83
2022/09/17 11:44:38;;;;;;;;;;;;;;;25.57;44.75;99581.18;104014;1314;61312;-83
2022/09/17 11:47:12;;;;;;;;;;;;;;;25.57;44.78;99585.68;104138;1309;61413;-83
2022/09/17 11:49:40;;;;;;;;;;;;;;;25.57;44.85;99585.16;104511;1308;73728;-83
2022/09/17 11:52:25;;;;;;;;;;;;;;;25.57;44.76;99584.23;104534;1308;74697;-84
2022/09/17 11:54:50;;;;;;;;;;;;;;;25.58;44.85;99577.16;104533;1308;61230;-83
2022/09/17 11:57:17;;;;;;;;;;;;;;;25.58;44.81;99585.27;104503;1311;61365;-83
2022/09/17 11:59:45;;;;;;;;;;;;;;;25.58;44.88;99583.84;104611;1309;61754;-84
2022/09/17 12:02:29;;;;;;;;;;;;;;;25.57;44.85;99583.39;104476;1309;74617;-84
2022/09/17 12:04:58;;;;;;;;;;;;;;;25.58;44.82;99582.96;104403;1309;61304;-84
2022/09/17 12:07:26;;;;;;;;;;;;;;;25.57;44.83;99583.02;104359;1309;61370;-82
2022/09/17 12:09:53;;;;;;;;;;;;;;;25.57;44.85;99573.98;104480;1309;72735;-82
2022/09/17 12:12:20;;;;;;;;;;;;;;;25.57;44.89;99574.54;104413;1308;76959;-83
2022/09/17 12:14:46;;;;;;;;;;;;;;;25.57;44.87;99567.30;104567;1309;61301;-82
2022/09/17 12:17:23;;;;;;;;;;;;;;;25.58;45.03;99571.17;104506;1309;61785;-83
2022/09/17 12:19:56;;;;;;;;;;;;;;;25.58;44.91;99573.88;104523;1308;73946;-84
2022/09/17 12:22:22;;;;;;;;;;;;;;;25.58;45.00;99576.91;104592;1309;75992;-83
2022/09/17 12:24:51;;;;;;;;;;;;;;;25.58;44.97;99580.36;104531;1309;61255;-83
2022/09/17 12:27:20;;;;;;;;;;;;;;;25.58;44.95;99588.81;104456;1308;61532;-83
2022/09/17 12:30:01;;;;;;;;;;;;;;;25.59;44.96;99593.27;104525;1309;72769;-83
2022/09/17 12:32:30;;;;;;;;;;;;;;;25.59;44.91;99596.52;104622;1309;73037;-83
2022/09/17 12:35:01;;;;;;;;;;;;;;;25.59;44.91;99602.84;104559;1309;61222;-84
2022/09/17 12:37:39;;;;;;;;;;;;;;;25.58;44.96;99604.12;104518;1311;61318;-83
2022/09/17 12:40:07;;;;;;;;;;;;;;;25.58;44.79;99603.98;104529;1309;72986;-82
2022/09/17 12:42:37;;;;;;;;;;;;;;;25.58;44.81;99600.90;104603;1309;75675;-83